<?xml version="1.0" encoding="UTF-8" standalone="no" ?>
<gpx xmlns="http://www.topografix.com/GPX/1/1" xmlns:xsi="http://www.w3.org/2001/XMLSchema-instance" xsi:schemaLocation="http://www.topografix.com/GPX/1/1 http://www.topografix.com/GPX/1/1/gpx.xsd" version="1.1" creator="VisuGPX - https://www.visugpx.com">
  <metadata>
    <name>Abries SDR</name>
  </metadata>
  <wpt lat="44.7956" lon="6.92592">
    <ele>1571</ele>
  </wpt>
  <wpt lat="44.80157" lon="6.91439">
    <ele>1954</ele>
  </wpt>
  <wpt lat="44.83212" lon="6.90528">
    <ele>2662</ele>
  </wpt>
  <wpt lat="44.82511" lon="6.94159">
    <ele>1781</ele>
  </wpt>
  <wpt lat="44.82948" lon="6.94087">
    <ele>1813</ele>
  </wpt>
  <wpt lat="44.84948" lon="6.94649">
    <ele>2429</ele>
  </wpt>
  <wpt lat="44.85525" lon="6.93276">
    <ele>2686</ele>
  </wpt>
  <wpt lat="44.86127" lon="6.93145">
    <ele>3092</ele>
  </wpt>
  <wpt lat="44.82511" lon="6.94159">
    <ele>1781</ele>
  </wpt>
  <wpt lat="44.82891" lon="6.9414">
    <ele>1830</ele>
  </wpt>
  <wpt lat="44.83196" lon="7.00679">
    <ele>2614</ele>
  </wpt>
  <wpt lat="44.82511" lon="6.94159">
    <ele>1781</ele>
  </wpt>
  <wpt lat="44.82891" lon="6.9414">
    <ele>1830</ele>
  </wpt>
  <wpt lat="44.83547" lon="6.99793">
    <ele>2522</ele>
  </wpt>
  <wpt lat="44.8385" lon="7.00435">
    <ele>2803</ele>
  </wpt>
  <wpt lat="44.82511" lon="6.94159">
    <ele>1781</ele>
  </wpt>
  <wpt lat="44.82891" lon="6.9414">
    <ele>1830</ele>
  </wpt>
  <wpt lat="44.83547" lon="6.99793">
    <ele>2522</ele>
  </wpt>
  <wpt lat="44.84093" lon="6.99998">
    <ele>2874</ele>
  </wpt>
  <wpt lat="44.7956" lon="6.92592">
    <ele>1571</ele>
  </wpt>
  <wpt lat="44.80157" lon="6.91439">
    <ele>1954</ele>
  </wpt>
  <wpt lat="44.82414" lon="6.89209">
    <ele>2344</ele>
  </wpt>
  <wpt lat="44.8303" lon="6.89297">
    <ele>2399</ele>
  </wpt>
  <wpt lat="44.84389" lon="6.90492">
    <ele>2877</ele>
  </wpt>
  <wpt lat="44.81581" lon="6.9467">
    <ele>1710</ele>
  </wpt>
  <wpt lat="44.81329" lon="6.9528">
    <ele>1751</ele>
  </wpt>
  <wpt lat="44.81245" lon="6.95835">
    <ele>1809</ele>
  </wpt>
  <wpt lat="44.81389" lon="6.98449">
    <ele>1950</ele>
  </wpt>
  <wpt lat="44.82375" lon="7.0068">
    <ele>2520</ele>
  </wpt>
  <wpt lat="44.83084" lon="7.01088">
    <ele>2566</ele>
  </wpt>
  <wpt lat="44.82583" lon="7.01892">
    <ele>2661</ele>
  </wpt>
  <wpt lat="44.76756" lon="6.94934">
    <ele>1736</ele>
  </wpt>
  <wpt lat="44.75506" lon="6.93974">
    <ele>1924</ele>
  </wpt>
  <wpt lat="44.75201" lon="6.94055">
    <ele>1962</ele>
  </wpt>
  <wpt lat="44.73659" lon="6.94388">
    <ele>2190</ele>
  </wpt>
  <wpt lat="44.73624" lon="6.96532">
    <ele>2767</ele>
  </wpt>
  <wpt lat="44.7697" lon="6.95353">
    <ele>1725</ele>
  </wpt>
  <wpt lat="44.74148" lon="6.96408">
    <ele>2781</ele>
  </wpt>
  <wpt lat="44.76756" lon="6.94934">
    <ele>1736</ele>
  </wpt>
  <wpt lat="44.75506" lon="6.93974">
    <ele>1924</ele>
  </wpt>
  <wpt lat="44.75201" lon="6.94055">
    <ele>1962</ele>
  </wpt>
  <wpt lat="44.73659" lon="6.94388">
    <ele>2190</ele>
  </wpt>
  <wpt lat="44.72698" lon="6.95272">
    <ele>2313</ele>
  </wpt>
  <wpt lat="44.7211" lon="6.96043">
    <ele>2520</ele>
  </wpt>
  <wpt lat="44.71625" lon="6.96239">
    <ele>2702</ele>
  </wpt>
  <wpt lat="44.71473" lon="6.96795">
    <ele>2765</ele>
  </wpt>
  <wpt lat="44.71082" lon="6.96665">
    <ele>2885</ele>
  </wpt>
  <trk>
    <name><![CDATA[Tour Tête de Pelvas par le col d'Urine]]></name>
    <extensions>
      <line xmlns="http://www.topografix.com/GPX/gpx_style/0/2">
        <color>0000FF</color>
        <width>4</width>
          <extensions>
            <sens>1</sens>
          </extensions>
      </line>
    </extensions>
    <trkseg>
      <trkpt lat="44.81813" lon="6.94489">
        <ele>1750.9</ele>
        <time>2017-01-23T08:00:05Z</time>
      </trkpt>
      <trkpt lat="44.81773" lon="6.94557">
        <ele>1754.3</ele>
        <time>2017-01-23T08:04:50Z</time>
      </trkpt>
      <trkpt lat="44.81724" lon="6.94627">
        <ele>1758.4</ele>
        <time>2017-01-23T08:06:13Z</time>
      </trkpt>
      <trkpt lat="44.81661" lon="6.94679">
        <ele>1761.4</ele>
        <time>2017-01-23T08:07:34Z</time>
      </trkpt>
      <trkpt lat="44.81621" lon="6.94758">
        <ele>1762.5</ele>
        <time>2017-01-23T08:08:48Z</time>
      </trkpt>
      <trkpt lat="44.81574" lon="6.94836">
        <ele>1766.8</ele>
        <time>2017-01-23T08:10:11Z</time>
      </trkpt>
      <trkpt lat="44.81551" lon="6.9493">
        <ele>1770.3</ele>
        <time>2017-01-23T08:11:59Z</time>
      </trkpt>
      <trkpt lat="44.81544" lon="6.95031">
        <ele>1779.9</ele>
        <time>2017-01-23T08:13:18Z</time>
      </trkpt>
      <trkpt lat="44.81528" lon="6.95129">
        <ele>1786.2</ele>
        <time>2017-01-23T08:14:39Z</time>
      </trkpt>
      <trkpt lat="44.81482" lon="6.95197">
        <ele>1792.7</ele>
        <time>2017-01-23T08:16:02Z</time>
      </trkpt>
      <trkpt lat="44.81443" lon="6.95273">
        <ele>1797.4</ele>
        <time>2017-01-23T08:18:42Z</time>
      </trkpt>
      <trkpt lat="44.81388" lon="6.95337">
        <ele>1800</ele>
        <time>2017-01-23T08:19:50Z</time>
      </trkpt>
      <trkpt lat="44.81335" lon="6.95407">
        <ele>1800.6</ele>
        <time>2017-01-23T08:20:58Z</time>
      </trkpt>
      <trkpt lat="44.81304" lon="6.95495">
        <ele>1801.6</ele>
        <time>2017-01-23T08:22:07Z</time>
      </trkpt>
      <trkpt lat="44.81269" lon="6.95584">
        <ele>1802.1</ele>
        <time>2017-01-23T08:23:15Z</time>
      </trkpt>
      <trkpt lat="44.81248" lon="6.95662">
        <ele>1802.1</ele>
        <time>2017-01-23T08:25:31Z</time>
      </trkpt>
      <trkpt lat="44.81259" lon="6.95762">
        <ele>1812.3</ele>
        <time>2017-01-23T08:26:49Z</time>
      </trkpt>
      <trkpt lat="44.81242" lon="6.95857">
        <ele>1814.5</ele>
        <time>2017-01-23T08:28:06Z</time>
      </trkpt>
      <trkpt lat="44.81229" lon="6.95957">
        <ele>1825</ele>
        <time>2017-01-23T08:29:26Z</time>
      </trkpt>
      <trkpt lat="44.81189" lon="6.96043">
        <ele>1830.9</ele>
        <time>2017-01-23T08:30:50Z</time>
      </trkpt>
      <trkpt lat="44.81191" lon="6.96139">
        <ele>1836.4</ele>
        <time>2017-01-23T08:32:06Z</time>
      </trkpt>
      <trkpt lat="44.81176" lon="6.96236">
        <ele>1840.5</ele>
        <time>2017-01-23T08:33:18Z</time>
      </trkpt>
      <trkpt lat="44.81155" lon="6.96331">
        <ele>1844.6</ele>
        <time>2017-01-23T08:34:24Z</time>
      </trkpt>
      <trkpt lat="44.81157" lon="6.96428">
        <ele>1846.2</ele>
        <time>2017-01-23T08:36:17Z</time>
      </trkpt>
      <trkpt lat="44.81165" lon="6.9653">
        <ele>1846.7</ele>
        <time>2017-01-23T08:37:27Z</time>
      </trkpt>
      <trkpt lat="44.81185" lon="6.9663">
        <ele>1849.9</ele>
        <time>2017-01-23T08:38:37Z</time>
      </trkpt>
      <trkpt lat="44.81164" lon="6.96707">
        <ele>1848.6</ele>
        <time>2017-01-23T08:39:40Z</time>
      </trkpt>
      <trkpt lat="44.81173" lon="6.96806">
        <ele>1852</ele>
        <time>2017-01-23T08:40:53Z</time>
      </trkpt>
      <trkpt lat="44.81157" lon="6.96901">
        <ele>1855.6</ele>
        <time>2017-01-23T08:42:11Z</time>
      </trkpt>
      <trkpt lat="44.81131" lon="6.96965">
        <ele>1863.5</ele>
        <time>2017-01-23T08:43:49Z</time>
      </trkpt>
      <trkpt lat="44.81093" lon="6.97036">
        <ele>1870.5</ele>
        <time>2017-01-23T08:48:16Z</time>
      </trkpt>
      <trkpt lat="44.81038" lon="6.97073">
        <ele>1876.6</ele>
        <time>2017-01-23T08:51:03Z</time>
      </trkpt>
      <trkpt lat="44.80966" lon="6.97081">
        <ele>1884.3</ele>
        <time>2017-01-23T08:52:45Z</time>
      </trkpt>
      <trkpt lat="44.80899" lon="6.97109">
        <ele>1893.6</ele>
        <time>2017-01-23T08:54:10Z</time>
      </trkpt>
      <trkpt lat="44.80832" lon="6.97121">
        <ele>1906.5</ele>
        <time>2017-01-23T08:55:53Z</time>
      </trkpt>
      <trkpt lat="44.8077" lon="6.97153">
        <ele>1913.9</ele>
        <time>2017-01-23T08:57:38Z</time>
      </trkpt>
      <trkpt lat="44.80826" lon="6.97208">
        <ele>1923.5</ele>
        <time>2017-01-23T08:59:53Z</time>
      </trkpt>
      <trkpt lat="44.80789" lon="6.97239">
        <ele>1938.1</ele>
        <time>2017-01-23T09:02:37Z</time>
      </trkpt>
      <trkpt lat="44.8077" lon="6.973">
        <ele>1962.2</ele>
        <time>2017-01-23T09:04:54Z</time>
      </trkpt>
      <trkpt lat="44.80714" lon="6.97343">
        <ele>1972.1</ele>
        <time>2017-01-23T09:06:48Z</time>
      </trkpt>
      <trkpt lat="44.80689" lon="6.97397">
        <ele>1989.4</ele>
        <time>2017-01-23T09:12:15Z</time>
      </trkpt>
      <trkpt lat="44.80628" lon="6.9745">
        <ele>2007.6</ele>
        <time>2017-01-23T09:14:20Z</time>
      </trkpt>
      <trkpt lat="44.80567" lon="6.97497">
        <ele>2015.7</ele>
        <time>2017-01-23T09:16:06Z</time>
      </trkpt>
      <trkpt lat="44.80501" lon="6.97525">
        <ele>2029.8</ele>
        <time>2017-01-23T09:17:50Z</time>
      </trkpt>
      <trkpt lat="44.80449" lon="6.97594">
        <ele>2058.6</ele>
        <time>2017-01-23T09:20:01Z</time>
      </trkpt>
      <trkpt lat="44.804" lon="6.97652">
        <ele>2074.8</ele>
        <time>2017-01-23T09:22:33Z</time>
      </trkpt>
      <trkpt lat="44.80376" lon="6.97724">
        <ele>2100</ele>
        <time>2017-01-23T09:25:04Z</time>
      </trkpt>
      <trkpt lat="44.8032" lon="6.97782">
        <ele>2110.3</ele>
        <time>2017-01-23T09:27:20Z</time>
      </trkpt>
      <trkpt lat="44.80265" lon="6.97837">
        <ele>2123.9</ele>
        <time>2017-01-23T09:29:53Z</time>
      </trkpt>
      <trkpt lat="44.80235" lon="6.97908">
        <ele>2144.6</ele>
        <time>2017-01-23T09:32:12Z</time>
      </trkpt>
      <trkpt lat="44.80192" lon="6.97974">
        <ele>2153.8</ele>
        <time>2017-01-23T09:38:32Z</time>
      </trkpt>
      <trkpt lat="44.80144" lon="6.98046">
        <ele>2166.5</ele>
        <time>2017-01-23T09:40:13Z</time>
      </trkpt>
      <trkpt lat="44.80114" lon="6.98136">
        <ele>2180.1</ele>
        <time>2017-01-23T09:42:03Z</time>
      </trkpt>
      <trkpt lat="44.8008" lon="6.98225">
        <ele>2193.7</ele>
        <time>2017-01-23T09:43:55Z</time>
      </trkpt>
      <trkpt lat="44.8005" lon="6.98319">
        <ele>2206</ele>
        <time>2017-01-23T09:45:55Z</time>
      </trkpt>
      <trkpt lat="44.80027" lon="6.98412">
        <ele>2217.9</ele>
        <time>2017-01-23T09:47:55Z</time>
      </trkpt>
      <trkpt lat="44.80008" lon="6.9851">
        <ele>2231.4</ele>
        <time>2017-01-23T09:49:58Z</time>
      </trkpt>
      <trkpt lat="44.79981" lon="6.98604">
        <ele>2247.2</ele>
        <time>2017-01-23T09:52:12Z</time>
      </trkpt>
      <trkpt lat="44.79957" lon="6.98695">
        <ele>2261</ele>
        <time>2017-01-23T09:54:20Z</time>
      </trkpt>
      <trkpt lat="44.79936" lon="6.9879">
        <ele>2275</ele>
        <time>2017-01-23T09:56:23Z</time>
      </trkpt>
      <trkpt lat="44.79926" lon="6.98891">
        <ele>2287.6</ele>
        <time>2017-01-23T09:58:15Z</time>
      </trkpt>
      <trkpt lat="44.79914" lon="6.98972">
        <ele>2298.2</ele>
        <time>2017-01-23T10:05:20Z</time>
      </trkpt>
      <trkpt lat="44.79879" lon="6.99049">
        <ele>2313.8</ele>
        <time>2017-01-23T10:07:54Z</time>
      </trkpt>
      <trkpt lat="44.79846" lon="6.99132">
        <ele>2327.1</ele>
        <time>2017-01-23T10:11:25Z</time>
      </trkpt>
      <trkpt lat="44.79817" lon="6.99225">
        <ele>2334.2</ele>
        <time>2017-01-23T10:12:59Z</time>
      </trkpt>
      <trkpt lat="44.7979" lon="6.99317">
        <ele>2343.5</ele>
        <time>2017-01-23T10:14:36Z</time>
      </trkpt>
      <trkpt lat="44.79758" lon="6.99407">
        <ele>2357.7</ele>
        <time>2017-01-23T10:16:33Z</time>
      </trkpt>
      <trkpt lat="44.79719" lon="6.9949">
        <ele>2372.3</ele>
        <time>2017-01-23T10:18:34Z</time>
      </trkpt>
      <trkpt lat="44.79722" lon="6.99553">
        <ele>2392.1</ele>
        <time>2017-01-23T10:20:57Z</time>
      </trkpt>
      <trkpt lat="44.79705" lon="6.99632">
        <ele>2410.7</ele>
        <time>2017-01-23T10:23:22Z</time>
      </trkpt>
      <trkpt lat="44.79714" lon="6.99728">
        <ele>2428.3</ele>
        <time>2017-01-23T10:25:18Z</time>
      </trkpt>
      <trkpt lat="44.79709" lon="6.99826">
        <ele>2438.1</ele>
        <time>2017-01-23T10:27:11Z</time>
      </trkpt>
      <trkpt lat="44.7968" lon="6.99917">
        <ele>2449.5</ele>
        <time>2017-01-23T10:29:04Z</time>
      </trkpt>
      <trkpt lat="44.79637" lon="6.99997">
        <ele>2459</ele>
        <time>2017-01-23T10:30:42Z</time>
      </trkpt>
      <trkpt lat="44.796" lon="7.00077">
        <ele>2469.6</ele>
        <time>2017-01-23T10:32:21Z</time>
      </trkpt>
      <trkpt lat="44.79598" lon="7.00168">
        <ele>2486.8</ele>
        <time>2017-01-23T10:34:39Z</time>
      </trkpt>
      <trkpt lat="44.79554" lon="7.00231">
        <ele>2498.1</ele>
        <time>2017-01-23T10:37:53Z</time>
      </trkpt>
      <trkpt lat="44.79492" lon="7.00275">
        <ele>2512.2</ele>
        <time>2017-01-23T10:39:57Z</time>
      </trkpt>
      <trkpt lat="44.79449" lon="7.0036">
        <ele>2528.4</ele>
        <time>2017-01-23T10:41:47Z</time>
      </trkpt>
      <trkpt lat="44.79414" lon="7.00444">
        <ele>2532.8</ele>
        <time>2017-01-23T10:43:03Z</time>
      </trkpt>
      <trkpt lat="44.79393" lon="7.00505">
        <ele>2519.3</ele>
        <time>2017-01-23T10:45:05Z</time>
      </trkpt>
      <trkpt lat="44.7934" lon="7.00542">
        <ele>2499.1</ele>
        <time>2017-01-23T10:45:37Z</time>
      </trkpt>
      <trkpt lat="44.79293" lon="7.00614">
        <ele>2481.5</ele>
        <time>2017-01-23T10:46:11Z</time>
      </trkpt>
      <trkpt lat="44.7923" lon="7.00645">
        <ele>2485.9</ele>
        <time>2017-01-23T10:48:51Z</time>
      </trkpt>
      <trkpt lat="44.79158" lon="7.00644">
        <ele>2493.9</ele>
        <time>2017-01-23T10:50:43Z</time>
      </trkpt>
      <trkpt lat="44.79106" lon="7.00677">
        <ele>2488.7</ele>
        <time>2017-01-23T11:02:37Z</time>
      </trkpt>
      <trkpt lat="44.79043" lon="7.0071">
        <ele>2486.2</ele>
        <time>2017-01-23T11:04:04Z</time>
      </trkpt>
      <trkpt lat="44.78995" lon="7.00729">
        <ele>2494.7</ele>
        <time>2017-01-23T11:06:06Z</time>
      </trkpt>
      <trkpt lat="44.78943" lon="7.00726">
        <ele>2506.5</ele>
        <time>2017-01-23T11:08:58Z</time>
      </trkpt>
      <trkpt lat="44.78876" lon="7.00724">
        <ele>2514.4</ele>
        <time>2017-01-23T11:10:46Z</time>
      </trkpt>
      <trkpt lat="44.78807" lon="7.00736">
        <ele>2521</ele>
        <time>2017-01-23T11:12:19Z</time>
      </trkpt>
      <trkpt lat="44.78751" lon="7.0073">
        <ele>2527</ele>
        <time>2017-01-23T11:17:25Z</time>
      </trkpt>
      <trkpt lat="44.78685" lon="7.00761">
        <ele>2541.7</ele>
        <time>2017-01-23T11:19:33Z</time>
      </trkpt>
      <trkpt lat="44.78662" lon="7.00813">
        <ele>2562.2</ele>
        <time>2017-01-23T11:22:14Z</time>
      </trkpt>
      <trkpt lat="44.78592" lon="7.0081">
        <ele>2581.8</ele>
        <time>2017-01-23T11:24:36Z</time>
      </trkpt>
      <trkpt lat="44.78543" lon="7.00806">
        <ele>2601.9</ele>
        <time>2017-01-23T11:27:27Z</time>
      </trkpt>
      <trkpt lat="44.7851" lon="7.00724">
        <ele>2613.4</ele>
        <time>2017-01-23T11:29:36Z</time>
      </trkpt>
      <trkpt lat="44.78513" lon="7.00632">
        <ele>2608.4</ele>
        <time>2017-01-23T11:31:42Z</time>
      </trkpt>
      <trkpt lat="44.78554" lon="7.0058">
        <ele>2608.1</ele>
        <time>2017-01-23T11:45:19Z</time>
      </trkpt>
      <trkpt lat="44.78531" lon="7.0055">
        <ele>2594.6</ele>
        <time>2017-01-23T11:47:17Z</time>
      </trkpt>
      <trkpt lat="44.78514" lon="7.0047">
        <ele>2563</ele>
        <time>2017-01-23T11:48:36Z</time>
      </trkpt>
      <trkpt lat="44.78488" lon="7.00419">
        <ele>2538.1</ele>
        <time>2017-01-23T11:49:24Z</time>
      </trkpt>
      <trkpt lat="44.78454" lon="7.00368">
        <ele>2509.9</ele>
        <time>2017-01-23T11:49:43Z</time>
      </trkpt>
      <trkpt lat="44.7842" lon="7.0036">
        <ele>2494.3</ele>
        <time>2017-01-23T11:50:21Z</time>
      </trkpt>
      <trkpt lat="44.78375" lon="7.00307">
        <ele>2476.3</ele>
        <time>2017-01-23T11:50:39Z</time>
      </trkpt>
      <trkpt lat="44.78318" lon="7.00281">
        <ele>2457.6</ele>
        <time>2017-01-23T11:51:53Z</time>
      </trkpt>
      <trkpt lat="44.783" lon="7.00244">
        <ele>2441</ele>
        <time>2017-01-23T11:52:13Z</time>
      </trkpt>
      <trkpt lat="44.78269" lon="7.00217">
        <ele>2419.8</ele>
        <time>2017-01-23T11:52:30Z</time>
      </trkpt>
      <trkpt lat="44.78292" lon="7.00165">
        <ele>2410.3</ele>
        <time>2017-01-23T11:52:48Z</time>
      </trkpt>
      <trkpt lat="44.78231" lon="7.00153">
        <ele>2390.8</ele>
        <time>2017-01-23T11:53:28Z</time>
      </trkpt>
      <trkpt lat="44.78191" lon="7.00098">
        <ele>2377.3</ele>
        <time>2017-01-23T11:53:44Z</time>
      </trkpt>
      <trkpt lat="44.78194" lon="7.00027">
        <ele>2357.8</ele>
        <time>2017-01-23T11:54:32Z</time>
      </trkpt>
      <trkpt lat="44.78174" lon="6.99978">
        <ele>2338.2</ele>
        <time>2017-01-23T11:54:51Z</time>
      </trkpt>
      <trkpt lat="44.78123" lon="6.99955">
        <ele>2323.7</ele>
        <time>2017-01-23T11:55:30Z</time>
      </trkpt>
      <trkpt lat="44.78083" lon="6.99907">
        <ele>2312</ele>
        <time>2017-01-23T11:55:46Z</time>
      </trkpt>
      <trkpt lat="44.78025" lon="6.99835">
        <ele>2299.9</ele>
        <time>2017-01-23T11:55:58Z</time>
      </trkpt>
      <trkpt lat="44.77979" lon="6.9979">
        <ele>2297.9</ele>
        <time>2017-01-23T12:31:52Z</time>
      </trkpt>
      <trkpt lat="44.77991" lon="6.9971">
        <ele>2305.2</ele>
        <time>2017-01-23T12:36:33Z</time>
      </trkpt>
      <trkpt lat="44.78053" lon="6.9966">
        <ele>2313.5</ele>
        <time>2017-01-23T12:38:39Z</time>
      </trkpt>
      <trkpt lat="44.781" lon="6.99588">
        <ele>2316.3</ele>
        <time>2017-01-23T12:40:30Z</time>
      </trkpt>
      <trkpt lat="44.78152" lon="6.99538">
        <ele>2332.6</ele>
        <time>2017-01-23T12:46:36Z</time>
      </trkpt>
      <trkpt lat="44.78198" lon="6.99464">
        <ele>2339</ele>
        <time>2017-01-23T12:48:36Z</time>
      </trkpt>
      <trkpt lat="44.78222" lon="6.99374">
        <ele>2341.5</ele>
        <time>2017-01-23T12:50:23Z</time>
      </trkpt>
      <trkpt lat="44.78236" lon="6.99277">
        <ele>2341.3</ele>
        <time>2017-01-23T12:51:50Z</time>
      </trkpt>
      <trkpt lat="44.78257" lon="6.99181">
        <ele>2340.4</ele>
        <time>2017-01-23T12:53:15Z</time>
      </trkpt>
      <trkpt lat="44.78288" lon="6.99089">
        <ele>2347.2</ele>
        <time>2017-01-23T12:55:02Z</time>
      </trkpt>
      <trkpt lat="44.78307" lon="6.98994">
        <ele>2355.4</ele>
        <time>2017-01-23T12:57:07Z</time>
      </trkpt>
      <trkpt lat="44.78323" lon="6.98897">
        <ele>2369.6</ele>
        <time>2017-01-23T12:59:23Z</time>
      </trkpt>
      <trkpt lat="44.78337" lon="6.98809">
        <ele>2385.3</ele>
        <time>2017-01-23T13:02:35Z</time>
      </trkpt>
      <trkpt lat="44.78354" lon="6.98731">
        <ele>2396.3</ele>
        <time>2017-01-23T13:04:54Z</time>
      </trkpt>
      <trkpt lat="44.78415" lon="6.98686">
        <ele>2407</ele>
        <time>2017-01-23T13:06:53Z</time>
      </trkpt>
      <trkpt lat="44.78462" lon="6.98609">
        <ele>2418.9</ele>
        <time>2017-01-23T13:08:56Z</time>
      </trkpt>
      <trkpt lat="44.7852" lon="6.98555">
        <ele>2429.4</ele>
        <time>2017-01-23T13:10:56Z</time>
      </trkpt>
      <trkpt lat="44.78571" lon="6.98488">
        <ele>2425.7</ele>
        <time>2017-01-23T13:12:38Z</time>
      </trkpt>
      <trkpt lat="44.78636" lon="6.98447">
        <ele>2429.7</ele>
        <time>2017-01-23T13:14:23Z</time>
      </trkpt>
      <trkpt lat="44.78699" lon="6.98427">
        <ele>2443.6</ele>
        <time>2017-01-23T13:17:39Z</time>
      </trkpt>
      <trkpt lat="44.78738" lon="6.98346">
        <ele>2452.7</ele>
        <time>2017-01-23T13:19:45Z</time>
      </trkpt>
      <trkpt lat="44.78761" lon="6.98254">
        <ele>2462</ele>
        <time>2017-01-23T13:22:29Z</time>
      </trkpt>
      <trkpt lat="44.78788" lon="6.98163">
        <ele>2472.3</ele>
        <time>2017-01-23T13:24:24Z</time>
      </trkpt>
      <trkpt lat="44.78817" lon="6.98073">
        <ele>2481.4</ele>
        <time>2017-01-23T13:26:20Z</time>
      </trkpt>
      <trkpt lat="44.78846" lon="6.9798">
        <ele>2490.6</ele>
        <time>2017-01-23T13:28:17Z</time>
      </trkpt>
      <trkpt lat="44.78882" lon="6.97892">
        <ele>2500.2</ele>
        <time>2017-01-23T13:30:13Z</time>
      </trkpt>
      <trkpt lat="44.78914" lon="6.97804">
        <ele>2508.9</ele>
        <time>2017-01-23T13:32:05Z</time>
      </trkpt>
      <trkpt lat="44.78936" lon="6.97707">
        <ele>2520.2</ele>
        <time>2017-01-23T13:34:12Z</time>
      </trkpt>
      <trkpt lat="44.7898" lon="6.97629">
        <ele>2537.6</ele>
        <time>2017-01-23T13:39:31Z</time>
      </trkpt>
      <trkpt lat="44.79001" lon="6.9754">
        <ele>2548.8</ele>
        <time>2017-01-23T13:42:04Z</time>
      </trkpt>
      <trkpt lat="44.79021" lon="6.97504">
        <ele>2552.8</ele>
        <time>2017-01-23T13:47:22Z</time>
      </trkpt>
      <trkpt lat="44.79031" lon="6.97575">
        <ele>2551.6</ele>
        <time>2017-01-23T14:04:46Z</time>
      </trkpt>
      <trkpt lat="44.79078" lon="6.97638">
        <ele>2539.5</ele>
        <time>2017-01-23T14:05:03Z</time>
      </trkpt>
      <trkpt lat="44.79129" lon="6.97607">
        <ele>2516.9</ele>
        <time>2017-01-23T14:05:22Z</time>
      </trkpt>
      <trkpt lat="44.79159" lon="6.97548">
        <ele>2492.6</ele>
        <time>2017-01-23T14:06:27Z</time>
      </trkpt>
      <trkpt lat="44.79152" lon="6.97472">
        <ele>2475.8</ele>
        <time>2017-01-23T14:06:55Z</time>
      </trkpt>
      <trkpt lat="44.79195" lon="6.97434">
        <ele>2451.1</ele>
        <time>2017-01-23T14:07:38Z</time>
      </trkpt>
      <trkpt lat="44.7925" lon="6.97418">
        <ele>2434</ele>
        <time>2017-01-23T14:08:04Z</time>
      </trkpt>
      <trkpt lat="44.7929" lon="6.97451">
        <ele>2421.1</ele>
        <time>2017-01-23T14:08:54Z</time>
      </trkpt>
      <trkpt lat="44.79312" lon="6.97538">
        <ele>2412.4</ele>
        <time>2017-01-23T14:09:10Z</time>
      </trkpt>
      <trkpt lat="44.79368" lon="6.97528">
        <ele>2388.7</ele>
        <time>2017-01-23T14:09:29Z</time>
      </trkpt>
      <trkpt lat="44.79417" lon="6.97476">
        <ele>2373</ele>
        <time>2017-01-23T14:09:47Z</time>
      </trkpt>
      <trkpt lat="44.79471" lon="6.97426">
        <ele>2363.8</ele>
        <time>2017-01-23T14:10:02Z</time>
      </trkpt>
      <trkpt lat="44.79521" lon="6.97376">
        <ele>2350.5</ele>
        <time>2017-01-23T14:11:08Z</time>
      </trkpt>
      <trkpt lat="44.79555" lon="6.9731">
        <ele>2335.5</ele>
        <time>2017-01-23T14:11:34Z</time>
      </trkpt>
      <trkpt lat="44.7959" lon="6.97236">
        <ele>2318.9</ele>
        <time>2017-01-23T14:12:24Z</time>
      </trkpt>
      <trkpt lat="44.79636" lon="6.97207">
        <ele>2294.8</ele>
        <time>2017-01-23T14:12:45Z</time>
      </trkpt>
      <trkpt lat="44.79672" lon="6.97239">
        <ele>2276.4</ele>
        <time>2017-01-23T14:14:22Z</time>
      </trkpt>
      <trkpt lat="44.7972" lon="6.9723">
        <ele>2254.5</ele>
        <time>2017-01-23T14:15:51Z</time>
      </trkpt>
      <trkpt lat="44.79713" lon="6.97324">
        <ele>2240.4</ele>
        <time>2017-01-23T14:16:12Z</time>
      </trkpt>
      <trkpt lat="44.79747" lon="6.9737">
        <ele>2218.7</ele>
        <time>2017-01-23T14:16:30Z</time>
      </trkpt>
      <trkpt lat="44.7981" lon="6.97362">
        <ele>2198.2</ele>
        <time>2017-01-23T14:18:32Z</time>
      </trkpt>
      <trkpt lat="44.79872" lon="6.97404">
        <ele>2172.1</ele>
        <time>2017-01-23T14:18:50Z</time>
      </trkpt>
      <trkpt lat="44.7991" lon="6.97414">
        <ele>2158.1</ele>
        <time>2017-01-23T14:19:39Z</time>
      </trkpt>
      <trkpt lat="44.79956" lon="6.97421">
        <ele>2145.4</ele>
        <time>2017-01-23T14:20:38Z</time>
      </trkpt>
      <trkpt lat="44.80019" lon="6.97388">
        <ele>2128.6</ele>
        <time>2017-01-23T14:21:12Z</time>
      </trkpt>
      <trkpt lat="44.80072" lon="6.9733">
        <ele>2120.2</ele>
        <time>2017-01-23T14:21:45Z</time>
      </trkpt>
      <trkpt lat="44.80136" lon="6.97313">
        <ele>2105.8</ele>
        <time>2017-01-23T14:22:13Z</time>
      </trkpt>
      <trkpt lat="44.80194" lon="6.97311">
        <ele>2089.4</ele>
        <time>2017-01-23T14:24:14Z</time>
      </trkpt>
      <trkpt lat="44.80245" lon="6.97306">
        <ele>2071.7</ele>
        <time>2017-01-23T14:24:54Z</time>
      </trkpt>
      <trkpt lat="44.80298" lon="6.97259">
        <ele>2057.4</ele>
        <time>2017-01-23T14:29:10Z</time>
      </trkpt>
      <trkpt lat="44.80346" lon="6.9724">
        <ele>2038.3</ele>
        <time>2017-01-23T14:29:44Z</time>
      </trkpt>
      <trkpt lat="44.80376" lon="6.97208">
        <ele>2029.4</ele>
        <time>2017-01-23T14:30:38Z</time>
      </trkpt>
      <trkpt lat="44.80421" lon="6.97192">
        <ele>2012.7</ele>
        <time>2017-01-23T14:32:24Z</time>
      </trkpt>
      <trkpt lat="44.80461" lon="6.97189">
        <ele>1998.1</ele>
        <time>2017-01-23T14:34:05Z</time>
      </trkpt>
      <trkpt lat="44.80448" lon="6.97284">
        <ele>1983.5</ele>
        <time>2017-01-23T14:34:49Z</time>
      </trkpt>
      <trkpt lat="44.80495" lon="6.97283">
        <ele>1968</ele>
        <time>2017-01-23T14:35:54Z</time>
      </trkpt>
      <trkpt lat="44.8055" lon="6.97234">
        <ele>1959.1</ele>
        <time>2017-01-23T14:36:31Z</time>
      </trkpt>
      <trkpt lat="44.8061" lon="6.97192">
        <ele>1947.2</ele>
        <time>2017-01-23T14:37:23Z</time>
      </trkpt>
      <trkpt lat="44.80663" lon="6.97152">
        <ele>1936.2</ele>
        <time>2017-01-23T14:38:38Z</time>
      </trkpt>
      <trkpt lat="44.80729" lon="6.97118">
        <ele>1922.2</ele>
        <time>2017-01-23T14:39:18Z</time>
      </trkpt>
      <trkpt lat="44.80797" lon="6.97116">
        <ele>1911.5</ele>
        <time>2017-01-23T14:39:49Z</time>
      </trkpt>
      <trkpt lat="44.80856" lon="6.97081">
        <ele>1905.8</ele>
        <time>2017-01-23T14:41:42Z</time>
      </trkpt>
      <trkpt lat="44.80919" lon="6.9703">
        <ele>1890.2</ele>
        <time>2017-01-23T14:42:04Z</time>
      </trkpt>
      <trkpt lat="44.80968" lon="6.96952">
        <ele>1878.5</ele>
        <time>2017-01-23T14:42:27Z</time>
      </trkpt>
      <trkpt lat="44.81013" lon="6.96875">
        <ele>1868.4</ele>
        <time>2017-01-23T14:43:44Z</time>
      </trkpt>
      <trkpt lat="44.81079" lon="6.96833">
        <ele>1863.3</ele>
        <time>2017-01-23T14:44:10Z</time>
      </trkpt>
      <trkpt lat="44.81145" lon="6.96816">
        <ele>1855.3</ele>
        <time>2017-01-23T14:44:22Z</time>
      </trkpt>
      <trkpt lat="44.81173" lon="6.96725">
        <ele>1849.3</ele>
        <time>2017-01-23T14:44:34Z</time>
      </trkpt>
      <trkpt lat="44.81189" lon="6.96657">
        <ele>1849.7</ele>
        <time>2017-01-23T14:46:30Z</time>
      </trkpt>
      <trkpt lat="44.81168" lon="6.96559">
        <ele>1846.4</ele>
        <time>2017-01-23T14:46:57Z</time>
      </trkpt>
      <trkpt lat="44.81156" lon="6.96456">
        <ele>1846.1</ele>
        <time>2017-01-23T14:47:24Z</time>
      </trkpt>
      <trkpt lat="44.81152" lon="6.96351">
        <ele>1844.3</ele>
        <time>2017-01-23T14:47:47Z</time>
      </trkpt>
      <trkpt lat="44.81167" lon="6.9625">
        <ele>1836.1</ele>
        <time>2017-01-23T14:48:11Z</time>
      </trkpt>
      <trkpt lat="44.81191" lon="6.96154">
        <ele>1836.9</ele>
        <time>2017-01-23T14:48:30Z</time>
      </trkpt>
      <trkpt lat="44.8118" lon="6.96054">
        <ele>1830.2</ele>
        <time>2017-01-23T14:48:42Z</time>
      </trkpt>
      <trkpt lat="44.81222" lon="6.95964">
        <ele>1823.4</ele>
        <time>2017-01-23T14:48:52Z</time>
      </trkpt>
      <trkpt lat="44.8124" lon="6.9586">
        <ele>1814</ele>
        <time>2017-01-23T14:49:01Z</time>
      </trkpt>
      <trkpt lat="44.81255" lon="6.95753">
        <ele>1809.7</ele>
        <time>2017-01-23T14:49:10Z</time>
      </trkpt>
      <trkpt lat="44.81244" lon="6.9565">
        <ele>1800.7</ele>
        <time>2017-01-23T14:49:19Z</time>
      </trkpt>
      <trkpt lat="44.81277" lon="6.9556">
        <ele>1800.7</ele>
        <time>2017-01-23T14:49:33Z</time>
      </trkpt>
      <trkpt lat="44.81308" lon="6.95471">
        <ele>1800.9</ele>
        <time>2017-01-23T14:49:52Z</time>
      </trkpt>
      <trkpt lat="44.81347" lon="6.95387">
        <ele>1799.3</ele>
        <time>2017-01-23T14:50:13Z</time>
      </trkpt>
      <trkpt lat="44.81399" lon="6.95315">
        <ele>1796.1</ele>
        <time>2017-01-23T14:50:36Z</time>
      </trkpt>
      <trkpt lat="44.81459" lon="6.95255">
        <ele>1798.6</ele>
        <time>2017-01-23T14:51:02Z</time>
      </trkpt>
      <trkpt lat="44.81506" lon="6.95174">
        <ele>1791</ele>
        <time>2017-01-23T14:51:23Z</time>
      </trkpt>
      <trkpt lat="44.81537" lon="6.95081">
        <ele>1783</ele>
        <time>2017-01-23T14:51:34Z</time>
      </trkpt>
      <trkpt lat="44.8155" lon="6.94979">
        <ele>1776.4</ele>
        <time>2017-01-23T14:51:44Z</time>
      </trkpt>
      <trkpt lat="44.81566" lon="6.94879">
        <ele>1768</ele>
        <time>2017-01-23T14:51:54Z</time>
      </trkpt>
      <trkpt lat="44.81598" lon="6.94789">
        <ele>1765.1</ele>
        <time>2017-01-23T14:52:04Z</time>
      </trkpt>
      <trkpt lat="44.81642" lon="6.94704">
        <ele>1760.9</ele>
        <time>2017-01-23T14:52:16Z</time>
      </trkpt>
      <trkpt lat="44.81697" lon="6.94642">
        <ele>1759</ele>
        <time>2017-01-23T14:52:33Z</time>
      </trkpt>
      <trkpt lat="44.81757" lon="6.94583">
        <ele>1753.9</ele>
        <time>2017-01-23T14:52:48Z</time>
      </trkpt>
      <trkpt lat="44.818" lon="6.945">
        <ele>1751.4</ele>
        <time>2017-01-23T14:53:07Z</time>
      </trkpt>
      <trkpt lat="44.81857" lon="6.94473">
        <ele>1752.5</ele>
        <time>2017-01-23T14:56:03Z</time>
      </trkpt>
    </trkseg>
  </trk>
</gpx>